sensor_id;sensor_type;location;lat;lon;timestamp;pressure;altitude;pressure_sealevel;temperature;humidity
35435;BME280;21556;55.782;37.528;2023-01-30T00:00:33;98864.19;;;-0.31;100.00
35435;BME280;21556;55.782;37.528;2023-01-30T00:02:59;98849.19;;;-0.39;100.00
35435;BME280;21556;55.782;37.528;2023-01-30T00:05:25;98858.00;;;-0.34;100.00
35435;BME280;21556;55.782;37.528;2023-01-30T00:07:53;98841.88;;;-0.30;100.00
35435;BME280;21556;55.782;37.528;2023-01-30T00:10:19;98859.00;;;-0.50;100.00
35435;BME280;21556;55.782;37.528;2023-01-30T00:12:48;98850.91;;;-0.20;100.00
35435;BME280;21556;55.782;37.528;2023-01-30T00:15:14;98854.50;;;-0.36;100.00
35435;BME280;21556;55.782;37.528;2023-01-30T00:17:40;98850.88;;;-0.40;100.00
35435;BME280;21556;55.782;37.528;2023-01-30T00:20:09;98840.06;;;-0.33;100.00
35435;BME280;21556;55.782;37.528;2023-01-30T00:22:35;98843.97;;;-0.59;100.00
35435;BME280;21556;55.782;37.528;2023-01-30T00:25:01;98834.13;;;-0.30;100.00
35435;BME280;21556;55.782;37.528;2023-01-30T00:27:29;98830.50;;;-0.53;100.00
35435;BME280;21556;55.782;37.528;2023-01-30T00:29:54;98820.41;;;-0.49;100.00
35435;BME280;21556;55.782;37.528;2023-01-30T00:32:21;98819.69;;;-0.46;100.00
35435;BME280;21556;55.782;37.528;2023-01-30T00:34:48;98808.69;;;-0.42;100.00
35435;BME280;21556;55.782;37.528;2023-01-30T00:37:14;98805.69;;;-0.51;100.00
35435;BME280;21556;55.782;37.528;2023-01-30T00:39:40;98808.19;;;-0.53;100.00
35435;BME280;21556;55.782;37.528;2023-01-30T00:42:05;98808.09;;;-0.36;100.00
35435;BME280;21556;55.782;37.528;2023-01-30T00:44:51;98805.44;;;-0.38;100.00
35435;BME280;21556;55.782;37.528;2023-01-30T00:47:36;98805.22;;;-0.42;100.00
35435;BME280;21556;55.782;37.528;2023-01-30T00:50:02;98800.47;;;-0.53;100.00
35435;BME280;21556;55.782;37.528;2023-01-30T00:52:29;98801.34;;;-0.52;100.00
35435;BME280;21556;55.782;37.528;2023-01-30T00:54:55;98801.06;;;-0.58;100.00
35435;BME280;21556;55.782;37.528;2023-01-30T00:57:21;98792.31;;;-0.62;100.00
35435;BME280;21556;55.782;37.528;2023-01-30T00:59:47;98805.03;;;-0.47;100.00
35435;BME280;21556;55.782;37.528;2023-01-30T01:02:13;98794.34;;;-0.55;100.00
35435;BME280;21556;55.782;37.528;2023-01-30T01:04:39;98789.81;;;-0.60;100.00
35435;BME280;21556;55.782;37.528;2023-01-30T01:07:13;98809.19;;;-0.68;100.00
35435;BME280;21556;55.782;37.528;2023-01-30T01:09:40;98777.06;;;-0.57;100.00
35435;BME280;21556;55.782;37.528;2023-01-30T01:12:06;98784.31;;;-0.68;100.00
35435;BME280;21556;55.782;37.528;2023-01-30T01:14:32;98781.00;;;-0.65;100.00
35435;BME280;21556;55.782;37.528;2023-01-30T01:16:59;98776.72;;;-0.65;100.00
35435;BME280;21556;55.782;37.528;2023-01-30T01:19:26;98782.25;;;-0.75;100.00
35435;BME280;21556;55.782;37.528;2023-01-30T01:21:52;98784.75;;;-0.77;100.00
35435;BME280;21556;55.782;37.528;2023-01-30T01:24:18;98775.84;;;-0.65;100.00
35435;BME280;21556;55.782;37.528;2023-01-30T01:26:44;98778.31;;;-0.86;100.00
35435;BME280;21556;55.782;37.528;2023-01-30T01:29:12;98774.09;;;-0.47;100.00
35435;BME280;21556;55.782;37.528;2023-01-30T01:31:38;98784.50;;;-0.63;100.00
35435;BME280;21556;55.782;37.528;2023-01-30T01:34:04;98776.25;;;-0.37;100.00
35435;BME280;21556;55.782;37.528;2023-01-30T01:36:30;98753.78;;;-0.78;100.00
35435;BME280;21556;55.782;37.528;2023-01-30T01:38:56;98761.53;;;-0.59;100.00
35435;BME280;21556;55.782;37.528;2023-01-30T01:41:22;98737.22;;;-0.46;100.00
35435;BME280;21556;55.782;37.528;2023-01-30T01:44:05;98732.25;;;-0.41;100.00
35435;BME280;21556;55.782;37.528;2023-01-30T01:46:39;98730.75;;;-0.56;100.00
35435;BME280;21556;55.782;37.528;2023-01-30T01:49:32;98717.41;;;-0.47;100.00
35435;BME280;21556;55.782;37.528;2023-01-30T01:52:06;98726.47;;;-0.55;100.00
35435;BME280;21556;55.782;37.528;2023-01-30T01:54:41;98725.47;;;-0.59;100.00
35435;BME280;21556;55.782;37.528;2023-01-30T01:57:30;98710.63;;;-0.45;100.00
35435;BME280;21556;55.782;37.528;2023-01-30T02:00:10;98710.44;;;-1.06;100.00
35435;BME280;21556;55.782;37.528;2023-01-30T02:02:42;98703.16;;;-0.58;100.00
35435;BME280;21556;55.782;37.528;2023-01-30T02:05:10;98695.91;;;-0.47;100.00
35435;BME280;21556;55.782;37.528;2023-01-30T02:07:46;98701.19;;;-0.44;100.00
35435;BME280;21556;55.782;37.528;2023-01-30T02:10:21;98697.19;;;-0.77;100.00
35435;BME280;21556;55.782;37.528;2023-01-30T02:12:49;98697.91;;;-0.61;100.00
35435;BME280;21556;55.782;37.528;2023-01-30T02:15:17;98691.88;;;-0.99;100.00
35435;BME280;21556;55.782;37.528;2023-01-30T02:17:43;98692.56;;;-0.84;100.00
35435;BME280;21556;55.782;37.528;2023-01-30T02:28:15;98677.34;;;-0.79;100.00
35435;BME280;21556;55.782;37.528;2023-01-30T02:42:24;98658.56;;;-0.57;100.00
35435;BME280;21556;55.782;37.528;2023-01-30T02:45:04;98650.06;;;-0.55;100.00
35435;BME280;21556;55.782;37.528;2023-01-30T02:47:37;98659.50;;;-0.75;100.00
35435;BME280;21556;55.782;37.528;2023-01-30T02:50:13;98644.13;;;-0.73;100.00
35435;BME280;21556;55.782;37.528;2023-01-30T02:52:41;98640.75;;;-0.72;100.00
35435;BME280;21556;55.782;37.528;2023-01-30T02:55:16;98641.41;;;-0.57;100.00
35435;BME280;21556;55.782;37.528;2023-01-30T02:57:43;98641.28;;;-0.60;100.00
35435;BME280;21556;55.782;37.528;2023-01-30T03:00:09;98634.22;;;-0.64;100.00
35435;BME280;21556;55.782;37.528;2023-01-30T03:11:10;98612.09;;;-0.80;100.00
35435;BME280;21556;55.782;37.528;2023-01-30T03:16:31;98605.38;;;-0.55;100.00
35435;BME280;21556;55.782;37.528;2023-01-30T03:18:59;98593.06;;;-0.62;100.00
35435;BME280;21556;55.782;37.528;2023-01-30T03:21:26;98599.09;;;-0.62;100.00
35435;BME280;21556;55.782;37.528;2023-01-30T03:23:51;98580.59;;;-0.53;100.00
35435;BME280;21556;55.782;37.528;2023-01-30T03:26:48;98582.59;;;-0.46;100.00
35435;BME280;21556;55.782;37.528;2023-01-30T03:29:17;98580.06;;;-0.65;100.00
35435;BME280;21556;55.782;37.528;2023-01-30T03:31:43;98581.75;;;-0.66;100.00
35435;BME280;21556;55.782;37.528;2023-01-30T03:34:09;98572.91;;;-0.73;100.00
35435;BME280;21556;55.782;37.528;2023-01-30T03:36:35;98587.66;;;-0.68;100.00
35435;BME280;21556;55.782;37.528;2023-01-30T03:39:02;98560.34;;;-0.65;100.00
35435;BME280;21556;55.782;37.528;2023-01-30T03:41:28;98577.88;;;-0.56;100.00
35435;BME280;21556;55.782;37.528;2023-01-30T03:43:54;98572.00;;;-0.73;100.00
35435;BME280;21556;55.782;37.528;2023-01-30T03:46:20;98575.47;;;-0.73;100.00
35435;BME280;21556;55.782;37.528;2023-01-30T03:48:47;98559.00;;;-0.95;100.00
35435;BME280;21556;55.782;37.528;2023-01-30T03:51:13;98555.28;;;-0.83;100.00
35435;BME280;21556;55.782;37.528;2023-01-30T03:53:39;98556.16;;;-0.82;100.00
35435;BME280;21556;55.782;37.528;2023-01-30T03:56:05;98541.03;;;-0.75;100.00
35435;BME280;21556;55.782;37.528;2023-01-30T03:58:33;98540.53;;;-0.66;100.00
35435;BME280;21556;55.782;37.528;2023-01-30T04:01:11;98537.91;;;-0.67;100.00
35435;BME280;21556;55.782;37.528;2023-01-30T04:03:37;98531.94;;;-0.66;100.00
35435;BME280;21556;55.782;37.528;2023-01-30T04:06:05;98530.31;;;-0.43;100.00
35435;BME280;21556;55.782;37.528;2023-01-30T04:08:31;98529.06;;;-0.53;100.00
35435;BME280;21556;55.782;37.528;2023-01-30T04:10:57;98519.06;;;-0.45;100.00
35435;BME280;21556;55.782;37.528;2023-01-30T04:13:23;98526.53;;;-0.52;100.00
35435;BME280;21556;55.782;37.528;2023-01-30T04:15:49;98510.31;;;-0.70;100.00
35435;BME280;21556;55.782;37.528;2023-01-30T04:18:34;98513.34;;;-0.59;100.00
35435;BME280;21556;55.782;37.528;2023-01-30T04:21:11;98509.19;;;-0.56;100.00
35435;BME280;21556;55.782;37.528;2023-01-30T04:23:38;98499.25;;;-0.67;100.00
35435;BME280;21556;55.782;37.528;2023-01-30T04:26:06;98503.47;;;-0.49;100.00
35435;BME280;21556;55.782;37.528;2023-01-30T04:28:35;98494.47;;;-0.58;100.00
35435;BME280;21556;55.782;37.528;2023-01-30T04:31:02;98500.44;;;-0.59;100.00
35435;BME280;21556;55.782;37.528;2023-01-30T04:33:47;98495.72;;;-0.69;100.00
35435;BME280;21556;55.782;37.528;2023-01-30T04:36:14;98495.38;;;-0.58;100.00
35435;BME280;21556;55.782;37.528;2023-01-30T04:39:03;98484.81;;;-0.43;100.00
35435;BME280;21556;55.782;37.528;2023-01-30T04:41:51;98483.13;;;-0.42;100.00
35435;BME280;21556;55.782;37.528;2023-01-30T04:44:20;98476.00;;;-0.48;100.00
35435;BME280;21556;55.782;37.528;2023-01-30T04:46:56;98477.69;;;-0.49;100.00
35435;BME280;21556;55.782;37.528;2023-01-30T04:49:22;98479.94;;;-0.58;100.00
35435;BME280;21556;55.782;37.528;2023-01-30T04:51:49;98481.59;;;-0.58;100.00
35435;BME280;21556;55.782;37.528;2023-01-30T04:54:16;98468.97;;;-0.52;100.00
35435;BME280;21556;55.782;37.528;2023-01-30T04:56:42;98460.56;;;-0.69;100.00
35435;BME280;21556;55.782;37.528;2023-01-30T04:59:08;98461.13;;;-0.55;100.00
35435;BME280;21556;55.782;37.528;2023-01-30T05:01:40;98445.97;;;-0.47;100.00
35435;BME280;21556;55.782;37.528;2023-01-30T05:04:06;98449.94;;;-0.77;100.00
35435;BME280;21556;55.782;37.528;2023-01-30T05:06:33;98448.44;;;-0.51;100.00
35435;BME280;21556;55.782;37.528;2023-01-30T05:09:00;98443.88;;;-0.35;100.00
35435;BME280;21556;55.782;37.528;2023-01-30T05:11:27;98448.03;;;-0.39;100.00
35435;BME280;21556;55.782;37.528;2023-01-30T05:13:54;98431.06;;;-0.55;100.00
35435;BME280;21556;55.782;37.528;2023-01-30T05:16:21;98429.63;;;-0.48;100.00
35435;BME280;21556;55.782;37.528;2023-01-30T05:18:48;98414.28;;;-0.45;100.00
35435;BME280;21556;55.782;37.528;2023-01-30T05:21:17;98421.16;;;-0.45;100.00
35435;BME280;21556;55.782;37.528;2023-01-30T05:23:43;98422.03;;;-0.45;100.00
35435;BME280;21556;55.782;37.528;2023-01-30T05:26:14;98417.41;;;-0.54;100.00
35435;BME280;21556;55.782;37.528;2023-01-30T05:28:40;98405.94;;;-0.83;100.00
35435;BME280;21556;55.782;37.528;2023-01-30T05:31:09;98405.22;;;-0.58;100.00
35435;BME280;21556;55.782;37.528;2023-01-30T05:33:36;98395.47;;;-0.65;100.00
35435;BME280;21556;55.782;37.528;2023-01-30T05:36:03;98404.66;;;-0.71;100.00
35435;BME280;21556;55.782;37.528;2023-01-30T05:38:29;98398.09;;;-0.63;100.00
35435;BME280;21556;55.782;37.528;2023-01-30T05:41:04;98391.22;;;-0.42;100.00
35435;BME280;21556;55.782;37.528;2023-01-30T05:43:31;98405.31;;;-0.55;100.00
35435;BME280;21556;55.782;37.528;2023-01-30T05:45:58;98406.22;;;-0.54;100.00
35435;BME280;21556;55.782;37.528;2023-01-30T05:48:25;98392.03;;;-0.65;100.00
35435;BME280;21556;55.782;37.528;2023-01-30T05:50:52;98384.53;;;-0.59;100.00
35435;BME280;21556;55.782;37.528;2023-01-30T05:53:19;98380.66;;;-0.48;100.00
35435;BME280;21556;55.782;37.528;2023-01-30T05:55:45;98382.75;;;-0.39;100.00
35435;BME280;21556;55.782;37.528;2023-01-30T05:58:11;98372.22;;;-0.66;100.00
35435;BME280;21556;55.782;37.528;2023-01-30T06:00:37;98375.47;;;-0.50;100.00
35435;BME280;21556;55.782;37.528;2023-01-30T06:03:03;98364.41;;;-0.47;100.00
35435;BME280;21556;55.782;37.528;2023-01-30T06:05:29;98359.44;;;-0.65;100.00
35435;BME280;21556;55.782;37.528;2023-01-30T06:07:55;98361.28;;;-0.38;100.00
35435;BME280;21556;55.782;37.528;2023-01-30T06:10:23;98352.75;;;-0.37;100.00
35435;BME280;21556;55.782;37.528;2023-01-30T06:12:48;98365.41;;;-0.43;100.00
35435;BME280;21556;55.782;37.528;2023-01-30T06:15:14;98353.81;;;-0.32;100.00
35435;BME280;21556;55.782;37.528;2023-01-30T06:17:43;98350.44;;;-0.30;100.00
35435;BME280;21556;55.782;37.528;2023-01-30T06:20:12;98364.81;;;-0.36;100.00
35435;BME280;21556;55.782;37.528;2023-01-30T06:22:38;98353.59;;;-0.37;100.00
35435;BME280;21556;55.782;37.528;2023-01-30T06:25:04;98365.78;;;-0.55;100.00
35435;BME280;21556;55.782;37.528;2023-01-30T06:27:32;98382.94;;;-0.56;100.00
35435;BME280;21556;55.782;37.528;2023-01-30T06:29:59;98368.06;;;-0.63;100.00
35435;BME280;21556;55.782;37.528;2023-01-30T06:32:25;98383.06;;;-0.75;100.00
35435;BME280;21556;55.782;37.528;2023-01-30T06:34:51;98360.16;;;-0.67;100.00
35435;BME280;21556;55.782;37.528;2023-01-30T06:37:17;98348.53;;;-0.58;100.00
35435;BME280;21556;55.782;37.528;2023-01-30T06:39:42;98348.94;;;-0.47;100.00
35435;BME280;21556;55.782;37.528;2023-01-30T06:42:08;98345.50;;;-0.25;100.00
35435;BME280;21556;55.782;37.528;2023-01-30T06:44:34;98365.00;;;-0.32;100.00
35435;BME280;21556;55.782;37.528;2023-01-30T06:47:00;98348.28;;;-0.41;100.00
35435;BME280;21556;55.782;37.528;2023-01-30T06:49:26;98353.75;;;-0.56;100.00
35435;BME280;21556;55.782;37.528;2023-01-30T06:51:54;98356.31;;;-0.56;100.00
35435;BME280;21556;55.782;37.528;2023-01-30T06:54:23;98351.50;;;-0.69;100.00
35435;BME280;21556;55.782;37.528;2023-01-30T06:56:49;98374.16;;;-0.83;100.00
35435;BME280;21556;55.782;37.528;2023-01-30T06:59:17;98342.97;;;-0.46;100.00
35435;BME280;21556;55.782;37.528;2023-01-30T07:01:43;98347.38;;;-0.43;100.00
35435;BME280;21556;55.782;37.528;2023-01-30T07:04:09;98346.84;;;-0.57;100.00
35435;BME280;21556;55.782;37.528;2023-01-30T07:06:37;98347.97;;;-0.51;100.00
35435;BME280;21556;55.782;37.528;2023-01-30T07:09:03;98334.94;;;-0.54;100.00
35435;BME280;21556;55.782;37.528;2023-01-30T07:11:29;98331.91;;;-0.43;100.00
35435;BME280;21556;55.782;37.528;2023-01-30T07:13:56;98343.69;;;-0.50;100.00
35435;BME280;21556;55.782;37.528;2023-01-30T07:16:22;98332.53;;;-0.49;100.00
35435;BME280;21556;55.782;37.528;2023-01-30T07:18:56;98334.88;;;-0.55;100.00
35435;BME280;21556;55.782;37.528;2023-01-30T07:21:26;98326.69;;;-0.45;100.00
35435;BME280;21556;55.782;37.528;2023-01-30T07:23:52;98329.75;;;-0.33;100.00
35435;BME280;21556;55.782;37.528;2023-01-30T07:26:18;98324.81;;;-0.49;100.00
35435;BME280;21556;55.782;37.528;2023-01-30T07:28:44;98320.72;;;-0.66;100.00
35435;BME280;21556;55.782;37.528;2023-01-30T07:31:09;98301.47;;;-0.54;100.00
35435;BME280;21556;55.782;37.528;2023-01-30T07:33:35;98308.94;;;-0.60;100.00
35435;BME280;21556;55.782;37.528;2023-01-30T07:36:01;98306.59;;;-0.31;100.00
35435;BME280;21556;55.782;37.528;2023-01-30T07:38:28;98291.06;;;-0.55;100.00
35435;BME280;21556;55.782;37.528;2023-01-30T07:40:56;98295.72;;;-0.46;100.00
35435;BME280;21556;55.782;37.528;2023-01-30T07:43:23;98294.56;;;-0.31;100.00
35435;BME280;21556;55.782;37.528;2023-01-30T07:45:49;98292.53;;;-0.62;100.00
35435;BME280;21556;55.782;37.528;2023-01-30T07:48:17;98284.25;;;-0.31;100.00
35435;BME280;21556;55.782;37.528;2023-01-30T07:50:43;98285.09;;;-0.32;100.00
35435;BME280;21556;55.782;37.528;2023-01-30T07:53:11;98282.84;;;-0.22;100.00
35435;BME280;21556;55.782;37.528;2023-01-30T07:55:38;98283.72;;;-0.46;100.00
35435;BME280;21556;55.782;37.528;2023-01-30T07:58:04;98275.25;;;-0.42;100.00
35435;BME280;21556;55.782;37.528;2023-01-30T08:00:30;98281.69;;;-0.31;100.00
35435;BME280;21556;55.782;37.528;2023-01-30T08:02:56;98275.06;;;-0.24;100.00
35435;BME280;21556;55.782;37.528;2023-01-30T08:05:22;98265.59;;;-0.25;100.00
35435;BME280;21556;55.782;37.528;2023-01-30T08:07:48;98258.38;;;-0.58;100.00
35435;BME280;21556;55.782;37.528;2023-01-30T08:10:14;98263.34;;;-0.40;100.00
35435;BME280;21556;55.782;37.528;2023-01-30T08:12:41;98259.69;;;-0.45;100.00
35435;BME280;21556;55.782;37.528;2023-01-30T08:15:08;98252.84;;;-0.20;100.00
35435;BME280;21556;55.782;37.528;2023-01-30T08:17:34;98255.59;;;-0.40;100.00
35435;BME280;21556;55.782;37.528;2023-01-30T08:20:00;98258.78;;;-0.47;100.00
35435;BME280;21556;55.782;37.528;2023-01-30T08:22:27;98242.91;;;-0.34;100.00
35435;BME280;21556;55.782;37.528;2023-01-30T08:24:53;98248.84;;;-0.36;100.00
35435;BME280;21556;55.782;37.528;2023-01-30T08:27:19;98241.44;;;-0.27;100.00
35435;BME280;21556;55.782;37.528;2023-01-30T08:29:45;98240.19;;;-0.38;100.00
35435;BME280;21556;55.782;37.528;2023-01-30T08:32:11;98236.63;;;-0.42;100.00
35435;BME280;21556;55.782;37.528;2023-01-30T08:34:40;98228.66;;;-0.24;100.00
35435;BME280;21556;55.782;37.528;2023-01-30T08:37:05;98224.38;;;-0.47;100.00
35435;BME280;21556;55.782;37.528;2023-01-30T08:39:32;98225.19;;;-0.73;100.00
35435;BME280;21556;55.782;37.528;2023-01-30T08:41:57;98216.22;;;-0.36;100.00
35435;BME280;21556;55.782;37.528;2023-01-30T08:44:23;98224.22;;;-0.52;100.00
35435;BME280;21556;55.782;37.528;2023-01-30T08:46:49;98220.56;;;-0.35;100.00
35435;BME280;21556;55.782;37.528;2023-01-30T08:49:15;98217.59;;;-0.45;100.00
35435;BME280;21556;55.782;37.528;2023-01-30T08:51:41;98224.28;;;-0.51;100.00
35435;BME280;21556;55.782;37.528;2023-01-30T08:54:07;98199.63;;;-0.18;100.00
35435;BME280;21556;55.782;37.528;2023-01-30T08:56:33;98204.38;;;-0.31;100.00
35435;BME280;21556;55.782;37.528;2023-01-30T08:58:59;98211.78;;;-0.40;100.00
35435;BME280;21556;55.782;37.528;2023-01-30T09:01:25;98209.63;;;-0.28;100.00
35435;BME280;21556;55.782;37.528;2023-01-30T09:03:50;98197.13;;;-0.17;100.00
35435;BME280;21556;55.782;37.528;2023-01-30T09:06:17;98192.81;;;-0.18;100.00
35435;BME280;21556;55.782;37.528;2023-01-30T09:08:43;98194.22;;;-0.26;100.00
35435;BME280;21556;55.782;37.528;2023-01-30T09:11:09;98194.22;;;-0.26;100.00
35435;BME280;21556;55.782;37.528;2023-01-30T09:13:35;98184.75;;;-0.27;100.00
35435;BME280;21556;55.782;37.528;2023-01-30T09:16:05;98178.69;;;-0.04;100.00
35435;BME280;21556;55.782;37.528;2023-01-30T09:18:31;98178.41;;;-0.11;100.00
35435;BME280;21556;55.782;37.528;2023-01-30T09:21:03;98191.09;;;0.08;100.00
35435;BME280;21556;55.782;37.528;2023-01-30T09:23:29;98203.19;;;-0.15;100.00
35435;BME280;21556;55.782;37.528;2023-01-30T09:25:55;98168.31;;;-0.05;100.00
35435;BME280;21556;55.782;37.528;2023-01-30T09:28:21;98177.16;;;-0.22;100.00
35435;BME280;21556;55.782;37.528;2023-01-30T09:30:47;98160.34;;;-0.37;100.00
35435;BME280;21556;55.782;37.528;2023-01-30T09:33:13;98158.97;;;-0.02;100.00
35435;BME280;21556;55.782;37.528;2023-01-30T09:35:41;98153.97;;;0.03;100.00
35435;BME280;21556;55.782;37.528;2023-01-30T09:38:07;98143.59;;;-0.50;100.00
35435;BME280;21556;55.782;37.528;2023-01-30T09:40:37;98139.69;;;-0.13;100.00
35435;BME280;21556;55.782;37.528;2023-01-30T09:54:36;98116.22;;;0.32;100.00
35435;BME280;21556;55.782;37.528;2023-01-30T09:57:09;98109.91;;;0.22;100.00
35435;BME280;21556;55.782;37.528;2023-01-30T10:00:16;98113.56;;;0.29;100.00
35435;BME280;21556;55.782;37.528;2023-01-30T10:02:52;98096.13;;;0.22;100.00
35435;BME280;21556;55.782;37.528;2023-01-30T10:10:38;98090.06;;;0.21;100.00
35435;BME280;21556;55.782;37.528;2023-01-30T10:21:30;98076.94;;;0.41;100.00
35435;BME280;21556;55.782;37.528;2023-01-30T10:24:12;98072.66;;;0.41;100.00
35435;BME280;21556;55.782;37.528;2023-01-30T10:26:41;98069.53;;;0.52;100.00
35435;BME280;21556;55.782;37.528;2023-01-30T10:29:17;98077.81;;;0.41;100.00
35435;BME280;21556;55.782;37.528;2023-01-30T10:31:51;98060.41;;;0.34;100.00
35435;BME280;21556;55.782;37.528;2023-01-30T10:37:05;98056.88;;;0.32;100.00
35435;BME280;21556;55.782;37.528;2023-01-30T10:42:42;98046.25;;;0.50;100.00
35435;BME280;21556;55.782;37.528;2023-01-30T10:45:14;98055.75;;;0.51;100.00
35435;BME280;21556;55.782;37.528;2023-01-30T10:47:53;98047.47;;;0.33;100.00
35435;BME280;21556;55.782;37.528;2023-01-30T10:50:33;98045.03;;;0.10;100.00
35435;BME280;21556;55.782;37.528;2023-01-30T10:53:15;98058.03;;;0.42;100.00
35435;BME280;21556;55.782;37.528;2023-01-30T10:55:55;98029.56;;;0.39;100.00
35435;BME280;21556;55.782;37.528;2023-01-30T11:01:24;98012.09;;;0.59;100.00
35435;BME280;21556;55.782;37.528;2023-01-30T11:03:56;98037.38;;;0.40;100.00
35435;BME280;21556;55.782;37.528;2023-01-30T11:06:26;98023.41;;;0.64;100.00
35435;BME280;21556;55.782;37.528;2023-01-30T11:08:53;98014.59;;;0.56;100.00
35435;BME280;21556;55.782;37.528;2023-01-30T11:11:27;98017.09;;;0.54;100.00
35435;BME280;21556;55.782;37.528;2023-01-30T11:14:08;98007.16;;;0.66;100.00
35435;BME280;21556;55.782;37.528;2023-01-30T11:16:54;98007.94;;;0.64;100.00
35435;BME280;21556;55.782;37.528;2023-01-30T11:19:23;98015.69;;;0.35;100.00
35435;BME280;21556;55.782;37.528;2023-01-30T11:21:53;97996.63;;;0.59;100.00
35435;BME280;21556;55.782;37.528;2023-01-30T11:24:22;97994.84;;;0.58;100.00
35435;BME280;21556;55.782;37.528;2023-01-30T11:26:49;97995.13;;;0.37;100.00
35435;BME280;21556;55.782;37.528;2023-01-30T11:29:24;97985.25;;;0.52;100.00
35435;BME280;21556;55.782;37.528;2023-01-30T11:31:51;97993.44;;;0.39;100.00
35435;BME280;21556;55.782;37.528;2023-01-30T11:34:19;97985.13;;;0.47;100.00
35435;BME280;21556;55.782;37.528;2023-01-30T11:36:45;97988.13;;;0.33;100.00
35435;BME280;21556;55.782;37.528;2023-01-30T11:44:25;97969.09;;;0.59;100.00
35435;BME280;21556;55.782;37.528;2023-01-30T11:46:51;97976.09;;;0.63;100.00
35435;BME280;21556;55.782;37.528;2023-01-30T11:49:19;97979.59;;;0.65;100.00
35435;BME280;21556;55.782;37.528;2023-01-30T11:51:47;97972.34;;;0.52;100.00
35435;BME280;21556;55.782;37.528;2023-01-30T11:54:37;97967.38;;;0.60;100.00
35435;BME280;21556;55.782;37.528;2023-01-30T11:57:10;97974.06;;;0.53;100.00
35435;BME280;21556;55.782;37.528;2023-01-30T11:59:45;97958.25;;;0.41;100.00
35435;BME280;21556;55.782;37.528;2023-01-30T12:02:27;97959.16;;;0.73;100.00
35435;BME280;21556;55.782;37.528;2023-01-30T12:04:59;97960.75;;;0.38;100.00
35435;BME280;21556;55.782;37.528;2023-01-30T12:07:28;97946.22;;;0.41;100.00
35435;BME280;21556;55.782;37.528;2023-01-30T12:09:55;97949.81;;;0.46;100.00
35435;BME280;21556;55.782;37.528;2023-01-30T12:25:57;97931.53;;;0.39;100.00
35435;BME280;21556;55.782;37.528;2023-01-30T12:31:07;97929.72;;;0.36;100.00
35435;BME280;21556;55.782;37.528;2023-01-30T12:33:36;97936.75;;;0.40;100.00
35435;BME280;21556;55.782;37.528;2023-01-30T12:41:33;97924.50;;;0.65;100.00
35435;BME280;21556;55.782;37.528;2023-01-30T13:18:33;97870.56;;;0.74;100.00
35435;BME280;21556;55.782;37.528;2023-01-30T13:21:38;97868.19;;;0.83;100.00
35435;BME280;21556;55.782;37.528;2023-01-30T13:26:44;97865.19;;;0.66;100.00
35435;BME280;21556;55.782;37.528;2023-01-30T13:29:42;97870.06;;;0.56;100.00
35435;BME280;21556;55.782;37.528;2023-01-30T13:35:00;97854.34;;;0.46;100.00
35435;BME280;21556;55.782;37.528;2023-01-30T13:37:35;97867.22;;;0.45;100.00
35435;BME280;21556;55.782;37.528;2023-01-30T13:40:17;97851.47;;;0.36;100.00
35435;BME280;21556;55.782;37.528;2023-01-30T13:45:48;97865.38;;;0.41;100.00
35435;BME280;21556;55.782;37.528;2023-01-30T13:48:42;97851.91;;;0.51;100.00
35435;BME280;21556;55.782;37.528;2023-01-30T13:51:20;97852.69;;;0.48;100.00
35435;BME280;21556;55.782;37.528;2023-01-30T13:56:30;97856.72;;;0.39;100.00
35435;BME280;21556;55.782;37.528;2023-01-30T13:59:53;97838.78;;;0.43;100.00
35435;BME280;21556;55.782;37.528;2023-01-30T14:09:48;97849.53;;;0.59;100.00
35435;BME280;21556;55.782;37.528;2023-01-30T14:12:18;97835.06;;;0.65;100.00
35435;BME280;21556;55.782;37.528;2023-01-30T14:15:50;97850.69;;;0.38;100.00
35435;BME280;21556;55.782;37.528;2023-01-30T14:20:45;97846.78;;;0.54;100.00
35435;BME280;21556;55.782;37.528;2023-01-30T14:25:50;97878.25;;;0.72;100.00
35435;BME280;21556;55.782;37.528;2023-01-30T14:30:50;97842.88;;;0.68;100.00
35435;BME280;21556;55.782;37.528;2023-01-30T14:38:41;97832.03;;;0.48;100.00
35435;BME280;21556;55.782;37.528;2023-01-30T14:41:15;97840.28;;;0.68;100.00
35435;BME280;21556;55.782;37.528;2023-01-30T14:48:43;97842.72;;;0.62;100.00
35435;BME280;21556;55.782;37.528;2023-01-30T14:51:22;97819.41;;;0.59;100.00
35435;BME280;21556;55.782;37.528;2023-01-30T14:54:00;97828.19;;;0.66;100.00
35435;BME280;21556;55.782;37.528;2023-01-30T15:04:23;97821.59;;;0.77;100.00
35435;BME280;21556;55.782;37.528;2023-01-30T15:06:50;97816.16;;;0.66;100.00
35435;BME280;21556;55.782;37.528;2023-01-30T15:09:18;97828.41;;;0.74;100.00
35435;BME280;21556;55.782;37.528;2023-01-30T15:11:58;97816.44;;;0.77;100.00
35435;BME280;21556;55.782;37.528;2023-01-30T15:14:31;97807.00;;;0.79;100.00
35435;BME280;21556;55.782;37.528;2023-01-30T15:17:28;97816.56;;;0.83;100.00
35435;BME280;21556;55.782;37.528;2023-01-30T15:20:11;97809.22;;;0.64;100.00
35435;BME280;21556;55.782;37.528;2023-01-30T15:22:56;97816.91;;;0.97;100.00
35435;BME280;21556;55.782;37.528;2023-01-30T15:31:28;97798.75;;;0.94;100.00
35435;BME280;21556;55.782;37.528;2023-01-30T15:33:55;97809.94;;;0.93;100.00
35435;BME280;21556;55.782;37.528;2023-01-30T15:36:28;97800.59;;;0.98;100.00
35435;BME280;21556;55.782;37.528;2023-01-30T15:39:18;97815.38;;;1.05;100.00
35435;BME280;21556;55.782;37.528;2023-01-30T15:41:45;97797.00;;;0.91;100.00
35435;BME280;21556;55.782;37.528;2023-01-30T15:44:42;97799.56;;;0.91;100.00
35435;BME280;21556;55.782;37.528;2023-01-30T15:47:17;97801.56;;;0.68;100.00
35435;BME280;21556;55.782;37.528;2023-01-30T15:50:03;97803.66;;;0.83;100.00
35435;BME280;21556;55.782;37.528;2023-01-30T15:52:43;97795.66;;;1.09;100.00
35435;BME280;21556;55.782;37.528;2023-01-30T15:55:34;97797.88;;;0.92;100.00